sensor_id;sensor_type;location;lat;lon;timestamp;P1;durP1;ratioP1;P2;durP2;ratioP2
45232;SDS011;30969;51.052;17.056;2023-04-12T00:04:03;8.00;;;4.45;;
45232;SDS011;30969;51.052;17.056;2023-04-12T00:09:07;10.35;;;4.20;;
45232;SDS011;30969;51.052;17.056;2023-04-12T00:14:11;7.85;;;4.40;;
45232;SDS011;30969;51.052;17.056;2023-04-12T00:19:16;10.77;;;4.68;;
45232;SDS011;30969;51.052;17.056;2023-04-12T00:24:20;9.98;;;5.15;;
45232;SDS011;30969;51.052;17.056;2023-04-12T00:29:24;7.45;;;4.45;;
45232;SDS011;30969;51.052;17.056;2023-04-12T00:34:29;9.90;;;4.88;;
45232;SDS011;30969;51.052;17.056;2023-04-12T00:39:32;9.73;;;4.47;;
45232;SDS011;30969;51.052;17.056;2023-04-12T00:44:36;8.77;;;5.18;;
45232;SDS011;30969;51.052;17.056;2023-04-12T00:49:41;7.82;;;4.30;;
45232;SDS011;30969;51.052;17.056;2023-04-12T00:54:44;7.32;;;4.25;;
45232;SDS011;30969;51.052;17.056;2023-04-12T00:59:48;6.43;;;3.35;;
45232;SDS011;30969;51.052;17.056;2023-04-12T01:04:54;9.13;;;4.57;;
45232;SDS011;30969;51.052;17.056;2023-04-12T01:10:00;5.45;;;3.45;;
45232;SDS011;30969;51.052;17.056;2023-04-12T01:15:13;5.47;;;3.25;;
45232;SDS011;30969;51.052;17.056;2023-04-12T01:20:22;9.55;;;3.60;;
45232;SDS011;30969;51.052;17.056;2023-04-12T01:25:35;4.85;;;3.38;;
45232;SDS011;30969;51.052;17.056;2023-04-12T01:30:42;9.23;;;3.78;;
45232;SDS011;30969;51.052;17.056;2023-04-12T01:35:48;6.78;;;3.50;;
45232;SDS011;30969;51.052;17.056;2023-04-12T01:40:53;6.97;;;4.30;;
45232;SDS011;30969;51.052;17.056;2023-04-12T01:45:58;10.45;;;3.45;;
45232;SDS011;30969;51.052;17.056;2023-04-12T01:51:03;6.97;;;3.47;;
45232;SDS011;30969;51.052;17.056;2023-04-12T01:56:08;6.03;;;2.90;;
45232;SDS011;30969;51.052;17.056;2023-04-12T02:01:14;11.25;;;3.42;;
45232;SDS011;30969;51.052;17.056;2023-04-12T02:06:19;7.07;;;3.20;;
45232;SDS011;30969;51.052;17.056;2023-04-12T02:11:24;7.13;;;3.75;;
45232;SDS011;30969;51.052;17.056;2023-04-12T02:16:29;7.88;;;4.95;;
45232;SDS011;30969;51.052;17.056;2023-04-12T02:21:38;9.15;;;3.95;;
45232;SDS011;30969;51.052;17.056;2023-04-12T02:26:43;6.35;;;3.28;;
45232;SDS011;30969;51.052;17.056;2023-04-12T02:31:48;8.73;;;3.95;;
45232;SDS011;30969;51.052;17.056;2023-04-12T02:36:52;7.05;;;3.30;;
45232;SDS011;30969;51.052;17.056;2023-04-12T02:41:56;7.00;;;3.80;;
45232;SDS011;30969;51.052;17.056;2023-04-12T02:47:01;5.55;;;3.40;;
45232;SDS011;30969;51.052;17.056;2023-04-12T02:52:04;7.63;;;3.35;;
45232;SDS011;30969;51.052;17.056;2023-04-12T02:57:08;5.45;;;3.25;;
45232;SDS011;30969;51.052;17.056;2023-04-12T03:02:13;6.47;;;3.40;;
45232;SDS011;30969;51.052;17.056;2023-04-12T03:07:17;11.85;;;4.80;;
45232;SDS011;30969;51.052;17.056;2023-04-12T03:12:23;15.13;;;7.63;;
45232;SDS011;30969;51.052;17.056;2023-04-12T03:17:28;10.57;;;4.45;;
45232;SDS011;30969;51.052;17.056;2023-04-12T03:22:32;10.50;;;3.97;;
45232;SDS011;30969;51.052;17.056;2023-04-12T03:27:35;5.40;;;3.83;;
45232;SDS011;30969;51.052;17.056;2023-04-12T03:32:40;13.40;;;8.70;;
45232;SDS011;30969;51.052;17.056;2023-04-12T03:37:44;8.95;;;5.38;;
45232;SDS011;30969;51.052;17.056;2023-04-12T03:42:48;7.38;;;4.50;;
45232;SDS011;30969;51.052;17.056;2023-04-12T03:47:53;7.20;;;4.05;;
45232;SDS011;30969;51.052;17.056;2023-04-12T03:52:56;7.57;;;4.07;;
45232;SDS011;30969;51.052;17.056;2023-04-12T03:58:00;6.03;;;3.35;;
45232;SDS011;30969;51.052;17.056;2023-04-12T04:03:04;8.73;;;3.80;;
45232;SDS011;30969;51.052;17.056;2023-04-12T04:08:08;8.15;;;4.18;;
45232;SDS011;30969;51.052;17.056;2023-04-12T04:13:12;9.00;;;4.60;;
45232;SDS011;30969;51.052;17.056;2023-04-12T04:18:17;7.53;;;4.47;;
45232;SDS011;30969;51.052;17.056;2023-04-12T04:23:20;6.43;;;3.88;;
45232;SDS011;30969;51.052;17.056;2023-04-12T04:28:24;9.18;;;4.20;;
45232;SDS011;30969;51.052;17.056;2023-04-12T04:33:29;6.18;;;4.00;;
45232;SDS011;30969;51.052;17.056;2023-04-12T04:38:33;6.25;;;3.95;;
45232;SDS011;30969;51.052;17.056;2023-04-12T04:43:37;9.50;;;4.15;;
45232;SDS011;30969;51.052;17.056;2023-04-12T04:48:45;8.15;;;4.53;;
45232;SDS011;30969;51.052;17.056;2023-04-12T04:53:48;9.95;;;3.92;;
45232;SDS011;30969;51.052;17.056;2023-04-12T04:58:52;7.18;;;3.70;;
45232;SDS011;30969;51.052;17.056;2023-04-12T05:03:59;8.10;;;4.03;;
45232;SDS011;30969;51.052;17.056;2023-04-12T05:09:03;7.00;;;4.13;;
45232;SDS011;30969;51.052;17.056;2023-04-12T05:14:06;9.88;;;4.47;;
45232;SDS011;30969;51.052;17.056;2023-04-12T05:19:14;8.02;;;4.80;;
45232;SDS011;30969;51.052;17.056;2023-04-12T05:24:18;7.97;;;4.78;;
45232;SDS011;30969;51.052;17.056;2023-04-12T05:29:21;9.13;;;5.07;;
45232;SDS011;30969;51.052;17.056;2023-04-12T05:34:26;10.27;;;6.25;;
45232;SDS011;30969;51.052;17.056;2023-04-12T05:39:31;10.20;;;5.07;;
45232;SDS011;30969;51.052;17.056;2023-04-12T05:44:42;8.25;;;4.63;;
45232;SDS011;30969;51.052;17.056;2023-04-12T05:49:52;9.02;;;4.15;;
45232;SDS011;30969;51.052;17.056;2023-04-12T05:54:55;8.90;;;4.50;;
45232;SDS011;30969;51.052;17.056;2023-04-12T05:59:59;8.07;;;4.38;;
45232;SDS011;30969;51.052;17.056;2023-04-12T06:05:05;9.45;;;5.20;;
45232;SDS011;30969;51.052;17.056;2023-04-12T06:10:10;7.38;;;4.72;;
45232;SDS011;30969;51.052;17.056;2023-04-12T06:15:13;6.35;;;4.15;;
45232;SDS011;30969;51.052;17.056;2023-04-12T06:20:18;7.72;;;4.40;;
45232;SDS011;30969;51.052;17.056;2023-04-12T06:25:22;9.55;;;4.90;;
45232;SDS011;30969;51.052;17.056;2023-04-12T06:30:26;13.48;;;6.50;;
45232;SDS011;30969;51.052;17.056;2023-04-12T06:35:31;10.35;;;5.35;;
45232;SDS011;30969;51.052;17.056;2023-04-12T06:40:35;11.57;;;5.05;;
45232;SDS011;30969;51.052;17.056;2023-04-12T06:45:38;8.27;;;4.90;;
45232;SDS011;30969;51.052;17.056;2023-04-12T06:50:44;12.68;;;5.82;;
45232;SDS011;30969;51.052;17.056;2023-04-12T06:55:48;12.95;;;5.40;;
45232;SDS011;30969;51.052;17.056;2023-04-12T07:00:51;7.22;;;4.35;;
45232;SDS011;30969;51.052;17.056;2023-04-12T07:05:56;8.35;;;5.13;;
45232;SDS011;30969;51.052;17.056;2023-04-12T07:11:06;7.75;;;4.70;;
45232;SDS011;30969;51.052;17.056;2023-04-12T07:16:21;8.95;;;4.72;;
45232;SDS011;30969;51.052;17.056;2023-04-12T07:21:26;8.88;;;5.47;;
45232;SDS011;30969;51.052;17.056;2023-04-12T07:26:30;8.52;;;4.97;;
45232;SDS011;30969;51.052;17.056;2023-04-12T07:31:33;9.20;;;4.60;;
45232;SDS011;30969;51.052;17.056;2023-04-12T07:36:38;8.75;;;4.70;;
45232;SDS011;30969;51.052;17.056;2023-04-12T07:41:42;10.10;;;4.82;;
45232;SDS011;30969;51.052;17.056;2023-04-12T07:46:47;9.95;;;4.53;;
45232;SDS011;30969;51.052;17.056;2023-04-12T07:51:52;9.32;;;4.22;;
45232;SDS011;30969;51.052;17.056;2023-04-12T07:56:59;7.07;;;4.05;;
45232;SDS011;30969;51.052;17.056;2023-04-12T08:02:03;5.85;;;3.40;;
45232;SDS011;30969;51.052;17.056;2023-04-12T08:07:08;7.45;;;3.45;;
45232;SDS011;30969;51.052;17.056;2023-04-12T08:12:12;8.43;;;3.97;;
45232;SDS011;30969;51.052;17.056;2023-04-12T08:17:16;4.15;;;2.85;;
45232;SDS011;30969;51.052;17.056;2023-04-12T08:22:21;4.75;;;2.63;;
45232;SDS011;30969;51.052;17.056;2023-04-12T08:27:24;4.53;;;2.80;;
45232;SDS011;30969;51.052;17.056;2023-04-12T08:32:28;4.30;;;2.75;;
45232;SDS011;30969;51.052;17.056;2023-04-12T08:37:33;4.43;;;2.92;;
45232;SDS011;30969;51.052;17.056;2023-04-12T08:42:37;6.55;;;3.88;;
45232;SDS011;30969;51.052;17.056;2023-04-12T08:47:41;5.20;;;3.30;;
45232;SDS011;30969;51.052;17.056;2023-04-12T08:52:48;4.45;;;3.05;;
45232;SDS011;30969;51.052;17.056;2023-04-12T08:57:53;6.25;;;3.92;;
45232;SDS011;30969;51.052;17.056;2023-04-12T09:02:57;4.28;;;3.17;;
45232;SDS011;30969;51.052;17.056;2023-04-12T09:08:03;5.75;;;3.63;;
45232;SDS011;30969;51.052;17.056;2023-04-12T09:13:07;8.75;;;3.78;;
45232;SDS011;30969;51.052;17.056;2023-04-12T09:18:11;7.00;;;3.92;;
45232;SDS011;30969;51.052;17.056;2023-04-12T09:23:19;7.03;;;3.40;;
45232;SDS011;30969;51.052;17.056;2023-04-12T09:28:25;5.35;;;3.00;;
45232;SDS011;30969;51.052;17.056;2023-04-12T09:33:34;8.45;;;3.25;;
45232;SDS011;30969;51.052;17.056;2023-04-12T09:38:56;4.30;;;2.90;;
45232;SDS011;30969;51.052;17.056;2023-04-12T09:44:01;4.13;;;2.60;;
45232;SDS011;30969;51.052;17.056;2023-04-12T09:49:05;6.50;;;2.85;;
45232;SDS011;30969;51.052;17.056;2023-04-12T09:54:10;4.25;;;2.45;;
45232;SDS011;30969;51.052;17.056;2023-04-12T09:59:14;5.32;;;2.63;;
45232;SDS011;30969;51.052;17.056;2023-04-12T10:04:18;4.28;;;2.58;;
45232;SDS011;30969;51.052;17.056;2023-04-12T10:09:24;4.38;;;2.65;;
45232;SDS011;30969;51.052;17.056;2023-04-12T10:14:27;2.92;;;2.55;;
45232;SDS011;30969;51.052;17.056;2023-04-12T10:19:32;6.07;;;2.40;;
45232;SDS011;30969;51.052;17.056;2023-04-12T10:24:36;4.25;;;2.80;;
45232;SDS011;30969;51.052;17.056;2023-04-12T10:29:40;5.03;;;2.75;;
45232;SDS011;30969;51.052;17.056;2023-04-12T10:34:47;6.13;;;2.22;;
45232;SDS011;30969;51.052;17.056;2023-04-12T10:39:54;4.65;;;1.83;;
45232;SDS011;30969;51.052;17.056;2023-04-12T10:50:35;5.88;;;2.20;;
45232;SDS011;30969;51.052;17.056;2023-04-12T10:55:40;6.57;;;2.10;;
45232;SDS011;30969;51.052;17.056;2023-04-12T11:06:12;5.32;;;2.15;;
45232;SDS011;30969;51.052;17.056;2023-04-12T11:11:29;3.70;;;2.10;;
45232;SDS011;30969;51.052;17.056;2023-04-12T11:22:14;5.53;;;2.47;;
45232;SDS011;30969;51.052;17.056;2023-04-12T11:27:20;3.83;;;2.33;;
45232;SDS011;30969;51.052;17.056;2023-04-12T11:32:25;3.20;;;1.38;;
45232;SDS011;30969;51.052;17.056;2023-04-12T11:37:29;2.05;;;1.55;;
45232;SDS011;30969;51.052;17.056;2023-04-12T11:42:34;4.72;;;1.73;;
45232;SDS011;30969;51.052;17.056;2023-04-12T11:47:41;3.10;;;1.80;;
45232;SDS011;30969;51.052;17.056;2023-04-12T11:52:45;7.05;;;2.03;;
45232;SDS011;30969;51.052;17.056;2023-04-12T11:57:50;3.40;;;1.58;;
45232;SDS011;30969;51.052;17.056;2023-04-12T12:02:56;3.22;;;2.08;;
45232;SDS011;30969;51.052;17.056;2023-04-12T12:08:09;6.68;;;2.80;;
45232;SDS011;30969;51.052;17.056;2023-04-12T12:13:14;4.65;;;1.83;;
45232;SDS011;30969;51.052;17.056;2023-04-12T12:18:18;3.88;;;2.03;;
45232;SDS011;30969;51.052;17.056;2023-04-12T12:23:28;7.97;;;2.92;;
45232;SDS011;30969;51.052;17.056;2023-04-12T12:28:36;3.20;;;2.05;;
45232;SDS011;30969;51.052;17.056;2023-04-12T12:33:40;4.20;;;2.20;;
45232;SDS011;30969;51.052;17.056;2023-04-12T12:38:51;2.92;;;1.73;;
45232;SDS011;30969;51.052;17.056;2023-04-12T12:43:56;3.95;;;2.03;;
45232;SDS011;30969;51.052;17.056;2023-04-12T12:49:00;3.83;;;1.85;;
45232;SDS011;30969;51.052;17.056;2023-04-12T12:54:04;4.38;;;2.60;;
45232;SDS011;30969;51.052;17.056;2023-04-12T12:59:10;3.33;;;1.95;;
45232;SDS011;30969;51.052;17.056;2023-04-12T13:04:15;4.22;;;2.30;;
45232;SDS011;30969;51.052;17.056;2023-04-12T13:09:18;3.30;;;2.00;;
45232;SDS011;30969;51.052;17.056;2023-04-12T13:14:23;3.08;;;1.45;;
45232;SDS011;30969;51.052;17.056;2023-04-12T13:19:27;2.95;;;1.52;;
45232;SDS011;30969;51.052;17.056;2023-04-12T13:24:30;3.50;;;1.60;;
45232;SDS011;30969;51.052;17.056;2023-04-12T13:29:35;2.05;;;1.60;;
45232;SDS011;30969;51.052;17.056;2023-04-12T13:34:39;3.30;;;1.85;;
45232;SDS011;30969;51.052;17.056;2023-04-12T13:39:43;2.78;;;1.55;;
45232;SDS011;30969;51.052;17.056;2023-04-12T13:44:48;3.03;;;1.40;;
45232;SDS011;30969;51.052;17.056;2023-04-12T13:49:51;3.80;;;1.88;;
45232;SDS011;30969;51.052;17.056;2023-04-12T13:54:56;3.88;;;1.60;;
45232;SDS011;30969;51.052;17.056;2023-04-12T14:00:03;4.80;;;2.38;;
45232;SDS011;30969;51.052;17.056;2023-04-12T14:05:08;3.53;;;1.83;;
45232;SDS011;30969;51.052;17.056;2023-04-12T14:10:13;2.17;;;1.40;;
45232;SDS011;30969;51.052;17.056;2023-04-12T14:15:18;3.40;;;1.83;;
45232;SDS011;30969;51.052;17.056;2023-04-12T14:20:22;3.95;;;1.85;;
45232;SDS011;30969;51.052;17.056;2023-04-12T14:25:27;3.58;;;1.75;;
45232;SDS011;30969;51.052;17.056;2023-04-12T14:30:33;2.33;;;1.40;;
45232;SDS011;30969;51.052;17.056;2023-04-12T14:35:37;5.05;;;1.42;;
45232;SDS011;30969;51.052;17.056;2023-04-12T14:40:41;4.13;;;1.52;;
45232;SDS011;30969;51.052;17.056;2023-04-12T14:45:46;3.22;;;1.52;;
45232;SDS011;30969;51.052;17.056;2023-04-12T14:50:50;3.15;;;1.20;;
45232;SDS011;30969;51.052;17.056;2023-04-12T14:55:55;5.05;;;1.73;;
45232;SDS011;30969;51.052;17.056;2023-04-12T15:01:02;2.83;;;1.45;;
45232;SDS011;30969;51.052;17.056;2023-04-12T15:06:08;4.32;;;1.95;;
45232;SDS011;30969;51.052;17.056;2023-04-12T15:11:12;4.60;;;1.20;;
45232;SDS011;30969;51.052;17.056;2023-04-12T15:16:17;2.15;;;1.20;;
45232;SDS011;30969;51.052;17.056;2023-04-12T15:21:21;4.00;;;1.58;;
45232;SDS011;30969;51.052;17.056;2023-04-12T15:26:24;4.10;;;2.08;;
45232;SDS011;30969;51.052;17.056;2023-04-12T15:31:29;7.47;;;2.67;;
45232;SDS011;30969;51.052;17.056;2023-04-12T15:36:34;2.33;;;1.30;;
45232;SDS011;30969;51.052;17.056;2023-04-12T15:41:39;3.78;;;1.30;;
45232;SDS011;30969;51.052;17.056;2023-04-12T15:46:46;5.18;;;1.20;;
45232;SDS011;30969;51.052;17.056;2023-04-12T15:52:09;3.13;;;1.25;;
45232;SDS011;30969;51.052;17.056;2023-04-12T15:57:13;2.05;;;1.25;;
45232;SDS011;30969;51.052;17.056;2023-04-12T16:02:18;3.35;;;2.05;;
45232;SDS011;30969;51.052;17.056;2023-04-12T16:07:22;4.13;;;1.30;;
45232;SDS011;30969;51.052;17.056;2023-04-12T16:12:26;2.83;;;1.33;;
45232;SDS011;30969;51.052;17.056;2023-04-12T16:17:31;4.28;;;1.38;;
45232;SDS011;30969;51.052;17.056;2023-04-12T16:22:35;3.15;;;1.73;;
45232;SDS011;30969;51.052;17.056;2023-04-12T16:27:39;3.38;;;1.70;;
45232;SDS011;30969;51.052;17.056;2023-04-12T16:32:44;3.00;;;1.60;;
45232;SDS011;30969;51.052;17.056;2023-04-12T16:37:48;3.55;;;1.83;;
45232;SDS011;30969;51.052;17.056;2023-04-12T16:42:52;3.42;;;2.17;;
45232;SDS011;30969;51.052;17.056;2023-04-12T16:47:57;3.58;;;1.73;;
45232;SDS011;30969;51.052;17.056;2023-04-12T16:53:01;5.03;;;2.70;;
45232;SDS011;30969;51.052;17.056;2023-04-12T16:58:05;5.32;;;2.70;;
45232;SDS011;30969;51.052;17.056;2023-04-12T17:03:09;5.93;;;2.22;;
45232;SDS011;30969;51.052;17.056;2023-04-12T17:08:13;6.05;;;2.95;;
45232;SDS011;30969;51.052;17.056;2023-04-12T17:13:17;7.68;;;4.30;;
45232;SDS011;30969;51.052;17.056;2023-04-12T17:18:22;6.50;;;4.00;;
45232;SDS011;30969;51.052;17.056;2023-04-12T17:23:26;6.38;;;3.55;;
45232;SDS011;30969;51.052;17.056;2023-04-12T17:28:29;7.07;;;4.38;;
45232;SDS011;30969;51.052;17.056;2023-04-12T17:33:36;8.38;;;4.60;;
45232;SDS011;30969;51.052;17.056;2023-04-12T17:38:40;12.77;;;7.10;;
45232;SDS011;30969;51.052;17.056;2023-04-12T17:43:44;12.38;;;7.35;;
45232;SDS011;30969;51.052;17.056;2023-04-12T17:48:49;14.60;;;7.50;;
45232;SDS011;30969;51.052;17.056;2023-04-12T17:53:52;10.10;;;5.30;;
45232;SDS011;30969;51.052;17.056;2023-04-12T17:58:58;8.77;;;4.50;;
45232;SDS011;30969;51.052;17.056;2023-04-12T18:04:07;8.15;;;4.03;;
45232;SDS011;30969;51.052;17.056;2023-04-12T18:09:11;10.00;;;5.20;;
45232;SDS011;30969;51.052;17.056;2023-04-12T18:14:15;10.90;;;6.18;;
45232;SDS011;30969;51.052;17.056;2023-04-12T18:19:21;11.20;;;5.88;;
45232;SDS011;30969;51.052;17.056;2023-04-12T18:24:24;19.77;;;10.43;;
45232;SDS011;30969;51.052;17.056;2023-04-12T18:29:28;25.02;;;12.25;;
45232;SDS011;30969;51.052;17.056;2023-04-12T18:34:35;19.98;;;10.82;;
45232;SDS011;30969;51.052;17.056;2023-04-12T18:39:38;21.45;;;10.98;;
45232;SDS011;30969;51.052;17.056;2023-04-12T18:44:43;22.63;;;9.68;;
45232;SDS011;30969;51.052;17.056;2023-04-12T18:49:48;15.38;;;7.80;;
45232;SDS011;30969;51.052;17.056;2023-04-12T18:54:52;14.38;;;8.25;;
45232;SDS011;30969;51.052;17.056;2023-04-12T18:59:55;15.50;;;8.55;;
45232;SDS011;30969;51.052;17.056;2023-04-12T19:05:03;14.52;;;7.25;;
45232;SDS011;30969;51.052;17.056;2023-04-12T19:10:07;13.27;;;6.28;;
45232;SDS011;30969;51.052;17.056;2023-04-12T19:15:12;11.25;;;5.95;;
45232;SDS011;30969;51.052;17.056;2023-04-12T19:20:16;10.07;;;6.32;;
45232;SDS011;30969;51.052;17.056;2023-04-12T19:25:20;15.10;;;7.47;;
45232;SDS011;30969;51.052;17.056;2023-04-12T19:30:30;13.55;;;8.63;;
45232;SDS011;30969;51.052;17.056;2023-04-12T19:35:35;13.20;;;7.93;;
45232;SDS011;30969;51.052;17.056;2023-04-12T19:40:38;14.57;;;8.20;;
45232;SDS011;30969;51.052;17.056;2023-04-12T19:45:42;18.30;;;9.82;;
45232;SDS011;30969;51.052;17.056;2023-04-12T19:50:47;16.80;;;10.05;;
45232;SDS011;30969;51.052;17.056;2023-04-12T19:55:53;19.63;;;10.07;;
45232;SDS011;30969;51.052;17.056;2023-04-12T20:00:59;14.27;;;9.52;;
45232;SDS011;30969;51.052;17.056;2023-04-12T20:06:05;12.27;;;9.05;;
45232;SDS011;30969;51.052;17.056;2023-04-12T20:11:09;17.00;;;8.75;;
45232;SDS011;30969;51.052;17.056;2023-04-12T20:16:14;10.88;;;7.72;;
45232;SDS011;30969;51.052;17.056;2023-04-12T20:21:19;12.48;;;7.78;;
45232;SDS011;30969;51.052;17.056;2023-04-12T20:26:24;13.20;;;8.15;;
45232;SDS011;30969;51.052;17.056;2023-04-12T20:31:28;16.65;;;8.20;;
45232;SDS011;30969;51.052;17.056;2023-04-12T20:36:34;11.50;;;7.75;;
45232;SDS011;30969;51.052;17.056;2023-04-12T20:41:37;14.38;;;9.52;;
45232;SDS011;30969;51.052;17.056;2023-04-12T20:46:41;19.05;;;9.93;;
45232;SDS011;30969;51.052;17.056;2023-04-12T20:51:48;15.45;;;9.40;;
45232;SDS011;30969;51.052;17.056;2023-04-12T21:01:56;14.23;;;9.73;;
45232;SDS011;30969;51.052;17.056;2023-04-12T21:07:02;15.45;;;10.98;;
45232;SDS011;30969;51.052;17.056;2023-04-12T21:12:06;18.88;;;10.25;;
45232;SDS011;30969;51.052;17.056;2023-04-12T21:17:11;17.70;;;10.40;;
45232;SDS011;30969;51.052;17.056;2023-04-12T21:22:16;16.92;;;11.02;;
45232;SDS011;30969;51.052;17.056;2023-04-12T21:27:20;15.50;;;10.85;;
45232;SDS011;30969;51.052;17.056;2023-04-12T21:32:23;21.80;;;11.20;;
45232;SDS011;30969;51.052;17.056;2023-04-12T21:37:28;17.23;;;10.98;;
45232;SDS011;30969;51.052;17.056;2023-04-12T21:42:32;15.85;;;10.75;;
45232;SDS011;30969;51.052;17.056;2023-04-12T21:47:37;19.80;;;12.82;;
45232;SDS011;30969;51.052;17.056;2023-04-12T21:52:42;18.30;;;11.32;;
45232;SDS011;30969;51.052;17.056;2023-04-12T21:57:48;15.85;;;11.15;;
45232;SDS011;30969;51.052;17.056;2023-04-12T22:02:52;17.65;;;11.73;;
45232;SDS011;30969;51.052;17.056;2023-04-12T22:07:57;18.02;;;11.88;;
45232;SDS011;30969;51.052;17.056;2023-04-12T22:13:00;16.55;;;10.95;;
45232;SDS011;30969;51.052;17.056;2023-04-12T22:18:04;15.52;;;11.30;;
45232;SDS011;30969;51.052;17.056;2023-04-12T22:23:09;17.27;;;10.93;;
45232;SDS011;30969;51.052;17.056;2023-04-12T22:28:14;18.90;;;11.43;;
45232;SDS011;30969;51.052;17.056;2023-04-12T22:33:19;18.27;;;12.65;;
45232;SDS011;30969;51.052;17.056;2023-04-12T22:38:24;19.23;;;12.15;;
45232;SDS011;30969;51.052;17.056;2023-04-12T22:43:27;20.17;;;12.15;;
45232;SDS011;30969;51.052;17.056;2023-04-12T22:48:35;18.90;;;13.20;;
45232;SDS011;30969;51.052;17.056;2023-04-12T22:53:40;20.98;;;12.52;;
45232;SDS011;30969;51.052;17.056;2023-04-12T22:58:45;20.45;;;14.32;;
45232;SDS011;30969;51.052;17.056;2023-04-12T23:03:49;16.90;;;12.45;;
45232;SDS011;30969;51.052;17.056;2023-04-12T23:08:53;17.88;;;12.13;;
45232;SDS011;30969;51.052;17.056;2023-04-12T23:13:59;23.02;;;13.32;;
45232;SDS011;30969;51.052;17.056;2023-04-12T23:19:03;19.42;;;13.10;;
45232;SDS011;30969;51.052;17.056;2023-04-12T23:24:08;20.13;;;12.57;;
45232;SDS011;30969;51.052;17.056;2023-04-12T23:29:12;19.38;;;12.90;;
45232;SDS011;30969;51.052;17.056;2023-04-12T23:34:16;19.63;;;13.32;;
45232;SDS011;30969;51.052;17.056;2023-04-12T23:39:22;25.10;;;13.40;;
45232;SDS011;30969;51.052;17.056;2023-04-12T23:44:26;23.10;;;13.43;;
45232;SDS011;30969;51.052;17.056;2023-04-12T23:49:32;21.58;;;13.57;;
45232;SDS011;30969;51.052;17.056;2023-04-12T23:54:37;17.48;;;12.75;;
45232;SDS011;30969;51.052;17.056;2023-04-12T23:59:40;20.02;;;12.52;;
